Nearby METAR Reports


NZWN - Wellington Intl, New Zealand
Distance from station: SSW 357km
Updated: 13/12/2018 03:30
Overcast
Overcast
 Wind from SW
Wind: SW 17 km/h
Temperature: 15°C
Dew Point: 15°C
Humidity: 100%
Barometer: 1013 hPa
Clouds: Overcast
Visibility: 8 km
Cloud details: Overcast 91 m
2018/12/12 14:30 NZWN 121430Z AUTO 23009KT 8000 OVC003/// 15/15 Q1013 TEMPO 4000 DZ BKN004
NZAA - Auckland Intl Ar, New Zealand
Distance from station: NW 162km
Updated: 13/12/2018 03:30
Overcast
Overcast
 Wind from E
Wind: E 4 km/h
Temperature: 17°C
Dew Point: 14°C
Humidity: 83%
Barometer: 1012 hPa
Clouds: Overcast
Visibility: 10 km
Cloud details: Overcast 2438 m
2018/12/12 14:30 NZAA 121430Z AUTO 09002KT 9999 OVC080/// 17/14 Q1012 NOSIG
 
NZCH - Christchurch Int, New Zealand
Distance from station: SSW 647km
Updated: 13/12/2018 03:30
Overcast
Overcast
 Wind from W
Wind: W 4 km/h
Temperature: 14°C
Dew Point: 13°C
Humidity: 94%
Barometer: 1016 hPa
Clouds: Overcast
Visibility: 10 km
Cloud details: Overcast 213 m
2018/12/12 14:30 NZCH 121430Z AUTO 26002KT 9999 OVC007/// 14/13 Q1016 NOSIG
YSNF - Norfolk Island A, Australia
Distance from station: NW 1258km
Updated: 13/12/2018 03:30
Partly Cloudy
Partly Cloudy
 Wind from N
Wind: N 7 km/h
Temperature: 18°C
Dew Point: 14°C
Humidity: 78%
Barometer: 1013 hPa
Clouds: Partly Cloudy
Visibility: 10 km
Cloud details: Partly Cloudy 1067 m
2018/12/12 14:30 YSNF 121430Z AUTO 36004KT 9999 // SCT035 18/14 Q1013 RF00.0/000.0